sensor_id;sensor_type;location;lat;lon;timestamp;P1;durP1;ratioP1;P2;durP2;ratioP2
73456;SDS011;61691;53.072;6.582;2023-06-14T00:01:55;14.43;;;3.20;;
73456;SDS011;61691;53.072;6.582;2023-06-14T00:04:22;14.48;;;3.30;;
73456;SDS011;61691;53.072;6.582;2023-06-14T00:06:51;13.02;;;3.25;;
73456;SDS011;61691;53.072;6.582;2023-06-14T00:09:19;13.57;;;3.03;;
73456;SDS011;61691;53.072;6.582;2023-06-14T00:11:45;14.50;;;2.90;;
73456;SDS011;61691;53.072;6.582;2023-06-14T00:14:12;12.45;;;3.20;;
73456;SDS011;61691;53.072;6.582;2023-06-14T00:16:39;17.02;;;3.67;;
73456;SDS011;61691;53.072;6.582;2023-06-14T00:19:09;18.45;;;3.47;;
73456;SDS011;61691;53.072;6.582;2023-06-14T00:21:37;13.50;;;2.88;;
73456;SDS011;61691;53.072;6.582;2023-06-14T00:24:04;15.23;;;3.70;;
73456;SDS011;61691;53.072;6.582;2023-06-14T00:26:31;14.88;;;3.38;;
73456;SDS011;61691;53.072;6.582;2023-06-14T00:28:58;16.65;;;4.03;;
73456;SDS011;61691;53.072;6.582;2023-06-14T00:31:25;17.10;;;3.75;;
73456;SDS011;61691;53.072;6.582;2023-06-14T00:33:52;16.00;;;3.60;;
73456;SDS011;61691;53.072;6.582;2023-06-14T00:36:18;14.10;;;4.05;;
73456;SDS011;61691;53.072;6.582;2023-06-14T00:38:45;15.57;;;3.75;;
73456;SDS011;61691;53.072;6.582;2023-06-14T00:41:12;14.23;;;4.18;;
73456;SDS011;61691;53.072;6.582;2023-06-14T00:43:39;16.75;;;3.65;;
73456;SDS011;61691;53.072;6.582;2023-06-14T00:46:06;15.13;;;3.97;;
73456;SDS011;61691;53.072;6.582;2023-06-14T00:48:33;14.35;;;3.90;;
73456;SDS011;61691;53.072;6.582;2023-06-14T00:51:00;15.23;;;3.55;;
73456;SDS011;61691;53.072;6.582;2023-06-14T00:53:30;13.00;;;3.08;;
73456;SDS011;61691;53.072;6.582;2023-06-14T00:56:00;13.33;;;3.00;;
73456;SDS011;61691;53.072;6.582;2023-06-14T00:58:27;12.90;;;3.22;;
73456;SDS011;61691;53.072;6.582;2023-06-14T01:00:54;13.75;;;3.25;;
73456;SDS011;61691;53.072;6.582;2023-06-14T01:03:21;11.40;;;3.28;;
73456;SDS011;61691;53.072;6.582;2023-06-14T01:05:50;15.45;;;3.28;;
73456;SDS011;61691;53.072;6.582;2023-06-14T01:08:31;13.48;;;2.92;;
73456;SDS011;61691;53.072;6.582;2023-06-14T01:11:13;9.88;;;2.50;;
73456;SDS011;61691;53.072;6.582;2023-06-14T01:13:45;12.57;;;3.13;;
73456;SDS011;61691;53.072;6.582;2023-06-14T01:16:12;14.35;;;3.55;;
73456;SDS011;61691;53.072;6.582;2023-06-14T01:18:40;15.25;;;3.20;;
73456;SDS011;61691;53.072;6.582;2023-06-14T01:21:19;14.90;;;3.33;;
73456;SDS011;61691;53.072;6.582;2023-06-14T01:23:47;14.02;;;3.72;;
73456;SDS011;61691;53.072;6.582;2023-06-14T01:26:22;12.38;;;3.50;;
73456;SDS011;61691;53.072;6.582;2023-06-14T01:28:49;15.30;;;3.87;;
73456;SDS011;61691;53.072;6.582;2023-06-14T01:31:19;15.50;;;3.05;;
73456;SDS011;61691;53.072;6.582;2023-06-14T01:33:48;13.05;;;2.90;;
73456;SDS011;61691;53.072;6.582;2023-06-14T01:36:18;13.23;;;2.80;;
73456;SDS011;61691;53.072;6.582;2023-06-14T01:38:46;10.35;;;2.70;;
73456;SDS011;61691;53.072;6.582;2023-06-14T01:41:16;14.98;;;2.97;;
73456;SDS011;61691;53.072;6.582;2023-06-14T01:43:45;8.95;;;2.40;;
73456;SDS011;61691;53.072;6.582;2023-06-14T01:46:14;15.00;;;2.55;;
73456;SDS011;61691;53.072;6.582;2023-06-14T01:48:42;10.27;;;2.15;;
73456;SDS011;61691;53.072;6.582;2023-06-14T01:51:09;10.20;;;2.40;;
73456;SDS011;61691;53.072;6.582;2023-06-14T01:53:36;8.32;;;2.00;;
73456;SDS011;61691;53.072;6.582;2023-06-14T01:56:03;10.82;;;2.22;;
73456;SDS011;61691;53.072;6.582;2023-06-14T01:58:30;7.78;;;2.15;;
73456;SDS011;61691;53.072;6.582;2023-06-14T02:00:57;9.18;;;2.33;;
73456;SDS011;61691;53.072;6.582;2023-06-14T02:03:24;13.10;;;2.47;;
73456;SDS011;61691;53.072;6.582;2023-06-14T02:05:51;11.02;;;3.17;;
73456;SDS011;61691;53.072;6.582;2023-06-14T02:08:18;8.85;;;2.17;;
73456;SDS011;61691;53.072;6.582;2023-06-14T02:10:45;10.80;;;2.40;;
73456;SDS011;61691;53.072;6.582;2023-06-14T02:13:12;13.57;;;2.70;;
73456;SDS011;61691;53.072;6.582;2023-06-14T02:15:38;9.63;;;2.50;;
73456;SDS011;61691;53.072;6.582;2023-06-14T02:18:06;9.43;;;2.20;;
73456;SDS011;61691;53.072;6.582;2023-06-14T02:20:33;11.45;;;2.40;;
73456;SDS011;61691;53.072;6.582;2023-06-14T02:23:00;9.57;;;2.33;;
73456;SDS011;61691;53.072;6.582;2023-06-14T02:25:27;10.00;;;2.20;;
73456;SDS011;61691;53.072;6.582;2023-06-14T02:27:54;11.98;;;2.47;;
73456;SDS011;61691;53.072;6.582;2023-06-14T02:30:22;10.25;;;2.50;;
73456;SDS011;61691;53.072;6.582;2023-06-14T02:32:48;9.45;;;2.13;;
73456;SDS011;61691;53.072;6.582;2023-06-14T02:35:17;14.18;;;3.22;;
73456;SDS011;61691;53.072;6.582;2023-06-14T02:37:44;9.65;;;2.50;;
73456;SDS011;61691;53.072;6.582;2023-06-14T02:40:11;9.95;;;2.00;;
73456;SDS011;61691;53.072;6.582;2023-06-14T02:42:38;11.02;;;2.50;;
73456;SDS011;61691;53.072;6.582;2023-06-14T02:45:05;11.63;;;2.35;;
73456;SDS011;61691;53.072;6.582;2023-06-14T02:47:32;11.00;;;2.42;;
73456;SDS011;61691;53.072;6.582;2023-06-14T02:49:59;12.88;;;2.45;;
73456;SDS011;61691;53.072;6.582;2023-06-14T02:52:26;14.02;;;2.85;;
73456;SDS011;61691;53.072;6.582;2023-06-14T02:54:53;10.95;;;2.30;;
73456;SDS011;61691;53.072;6.582;2023-06-14T02:57:21;10.43;;;2.53;;
73456;SDS011;61691;53.072;6.582;2023-06-14T02:59:48;10.35;;;2.70;;
73456;SDS011;61691;53.072;6.582;2023-06-14T03:02:15;13.00;;;2.70;;
73456;SDS011;61691;53.072;6.582;2023-06-14T03:04:42;10.50;;;2.38;;
73456;SDS011;61691;53.072;6.582;2023-06-14T03:07:10;9.05;;;2.53;;
73456;SDS011;61691;53.072;6.582;2023-06-14T03:09:39;10.55;;;2.58;;
73456;SDS011;61691;53.072;6.582;2023-06-14T03:12:06;13.85;;;2.65;;
73456;SDS011;61691;53.072;6.582;2023-06-14T03:14:36;9.70;;;2.42;;
73456;SDS011;61691;53.072;6.582;2023-06-14T03:17:03;18.48;;;2.78;;
73456;SDS011;61691;53.072;6.582;2023-06-14T03:19:31;11.40;;;2.78;;
73456;SDS011;61691;53.072;6.582;2023-06-14T03:21:58;13.20;;;2.90;;
73456;SDS011;61691;53.072;6.582;2023-06-14T03:24:25;11.32;;;2.65;;
73456;SDS011;61691;53.072;6.582;2023-06-14T03:26:55;13.73;;;2.90;;
73456;SDS011;61691;53.072;6.582;2023-06-14T03:29:23;15.05;;;2.95;;
73456;SDS011;61691;53.072;6.582;2023-06-14T03:31:56;15.07;;;2.95;;
73456;SDS011;61691;53.072;6.582;2023-06-14T03:34:24;15.48;;;3.47;;
73456;SDS011;61691;53.072;6.582;2023-06-14T03:36:51;13.95;;;3.10;;
73456;SDS011;61691;53.072;6.582;2023-06-14T03:39:19;12.27;;;3.08;;
73456;SDS011;61691;53.072;6.582;2023-06-14T03:41:46;13.55;;;3.05;;
73456;SDS011;61691;53.072;6.582;2023-06-14T03:44:16;12.70;;;3.10;;
73456;SDS011;61691;53.072;6.582;2023-06-14T03:46:45;12.52;;;3.13;;
73456;SDS011;61691;53.072;6.582;2023-06-14T03:49:12;13.75;;;3.00;;
73456;SDS011;61691;53.072;6.582;2023-06-14T03:51:39;12.77;;;3.50;;
73456;SDS011;61691;53.072;6.582;2023-06-14T03:54:07;15.45;;;3.17;;
73456;SDS011;61691;53.072;6.582;2023-06-14T03:56:53;13.00;;;3.30;;
73456;SDS011;61691;53.072;6.582;2023-06-14T03:59:20;12.65;;;3.00;;
73456;SDS011;61691;53.072;6.582;2023-06-14T04:01:47;13.15;;;3.05;;
73456;SDS011;61691;53.072;6.582;2023-06-14T04:04:15;14.93;;;3.20;;
73456;SDS011;61691;53.072;6.582;2023-06-14T04:06:45;13.30;;;3.13;;
73456;SDS011;61691;53.072;6.582;2023-06-14T04:09:15;13.90;;;2.93;;
73456;SDS011;61691;53.072;6.582;2023-06-14T04:11:41;13.63;;;2.97;;
73456;SDS011;61691;53.072;6.582;2023-06-14T04:14:08;15.73;;;3.40;;
73456;SDS011;61691;53.072;6.582;2023-06-14T04:16:35;14.10;;;3.20;;
73456;SDS011;61691;53.072;6.582;2023-06-14T04:19:01;12.85;;;2.88;;
73456;SDS011;61691;53.072;6.582;2023-06-14T04:21:28;15.27;;;3.20;;
73456;SDS011;61691;53.072;6.582;2023-06-14T04:23:55;14.48;;;2.90;;
73456;SDS011;61691;53.072;6.582;2023-06-14T04:26:22;17.95;;;3.13;;
73456;SDS011;61691;53.072;6.582;2023-06-14T04:28:52;13.45;;;3.00;;
73456;SDS011;61691;53.072;6.582;2023-06-14T04:31:23;14.50;;;3.58;;
73456;SDS011;61691;53.072;6.582;2023-06-14T04:33:52;14.60;;;3.15;;
73456;SDS011;61691;53.072;6.582;2023-06-14T04:36:20;15.02;;;3.20;;
73456;SDS011;61691;53.072;6.582;2023-06-14T04:38:47;12.35;;;2.63;;
73456;SDS011;61691;53.072;6.582;2023-06-14T04:41:15;16.15;;;3.10;;
73456;SDS011;61691;53.072;6.582;2023-06-14T04:43:43;14.63;;;2.83;;
73456;SDS011;61691;53.072;6.582;2023-06-14T04:46:14;13.77;;;3.17;;
73456;SDS011;61691;53.072;6.582;2023-06-14T04:48:42;13.63;;;3.00;;
73456;SDS011;61691;53.072;6.582;2023-06-14T04:51:09;12.60;;;2.85;;
73456;SDS011;61691;53.072;6.582;2023-06-14T04:53:36;14.23;;;2.97;;
73456;SDS011;61691;53.072;6.582;2023-06-14T04:56:03;16.30;;;2.70;;
73456;SDS011;61691;53.072;6.582;2023-06-14T04:58:30;16.20;;;2.88;;
73456;SDS011;61691;53.072;6.582;2023-06-14T05:00:58;14.52;;;2.88;;
73456;SDS011;61691;53.072;6.582;2023-06-14T05:03:26;11.77;;;2.70;;
73456;SDS011;61691;53.072;6.582;2023-06-14T05:05:54;14.52;;;3.20;;
73456;SDS011;61691;53.072;6.582;2023-06-14T05:08:21;12.23;;;3.08;;
73456;SDS011;61691;53.072;6.582;2023-06-14T05:10:51;9.75;;;2.95;;
73456;SDS011;61691;53.072;6.582;2023-06-14T05:13:18;11.88;;;2.72;;
73456;SDS011;61691;53.072;6.582;2023-06-14T05:15:45;16.40;;;3.22;;
73456;SDS011;61691;53.072;6.582;2023-06-14T05:18:12;15.68;;;3.00;;
73456;SDS011;61691;53.072;6.582;2023-06-14T05:20:40;13.07;;;3.50;;
73456;SDS011;61691;53.072;6.582;2023-06-14T05:23:08;11.15;;;2.67;;
73456;SDS011;61691;53.072;6.582;2023-06-14T05:25:45;14.27;;;2.90;;
73456;SDS011;61691;53.072;6.582;2023-06-14T05:28:12;11.68;;;2.97;;
73456;SDS011;61691;53.072;6.582;2023-06-14T05:30:39;14.13;;;2.90;;
73456;SDS011;61691;53.072;6.582;2023-06-14T05:33:07;10.90;;;2.70;;
73456;SDS011;61691;53.072;6.582;2023-06-14T05:35:34;10.82;;;2.60;;
73456;SDS011;61691;53.072;6.582;2023-06-14T05:38:00;12.70;;;3.00;;
73456;SDS011;61691;53.072;6.582;2023-06-14T05:40:27;14.27;;;2.80;;
73456;SDS011;61691;53.072;6.582;2023-06-14T05:42:54;12.70;;;2.70;;
73456;SDS011;61691;53.072;6.582;2023-06-14T05:45:21;10.57;;;2.50;;
73456;SDS011;61691;53.072;6.582;2023-06-14T05:47:47;11.82;;;2.78;;
73456;SDS011;61691;53.072;6.582;2023-06-14T05:50:14;12.95;;;2.63;;
73456;SDS011;61691;53.072;6.582;2023-06-14T05:52:41;12.95;;;3.05;;
73456;SDS011;61691;53.072;6.582;2023-06-14T05:55:08;14.90;;;3.22;;
73456;SDS011;61691;53.072;6.582;2023-06-14T05:57:35;13.32;;;2.97;;
73456;SDS011;61691;53.072;6.582;2023-06-14T06:00:02;13.15;;;2.95;;
73456;SDS011;61691;53.072;6.582;2023-06-14T06:02:37;11.98;;;2.60;;
73456;SDS011;61691;53.072;6.582;2023-06-14T06:05:04;11.68;;;2.70;;
73456;SDS011;61691;53.072;6.582;2023-06-14T06:07:32;12.05;;;2.88;;
73456;SDS011;61691;53.072;6.582;2023-06-14T06:10:02;12.98;;;2.97;;
73456;SDS011;61691;53.072;6.582;2023-06-14T06:12:31;14.93;;;3.08;;
73456;SDS011;61691;53.072;6.582;2023-06-14T06:14:59;13.40;;;2.88;;
73456;SDS011;61691;53.072;6.582;2023-06-14T06:17:26;12.90;;;2.83;;
73456;SDS011;61691;53.072;6.582;2023-06-14T06:20:07;11.90;;;2.80;;
73456;SDS011;61691;53.072;6.582;2023-06-14T06:22:35;12.50;;;2.83;;
73456;SDS011;61691;53.072;6.582;2023-06-14T06:25:02;10.77;;;2.70;;
73456;SDS011;61691;53.072;6.582;2023-06-14T06:27:29;13.55;;;2.70;;
73456;SDS011;61691;53.072;6.582;2023-06-14T06:29:56;15.40;;;2.90;;
73456;SDS011;61691;53.072;6.582;2023-06-14T06:32:23;14.20;;;2.80;;
73456;SDS011;61691;53.072;6.582;2023-06-14T06:34:51;14.23;;;2.53;;
73456;SDS011;61691;53.072;6.582;2023-06-14T06:37:18;15.63;;;2.72;;
73456;SDS011;61691;53.072;6.582;2023-06-14T06:39:45;11.35;;;2.60;;
73456;SDS011;61691;53.072;6.582;2023-06-14T06:42:12;14.07;;;3.45;;
73456;SDS011;61691;53.072;6.582;2023-06-14T06:44:39;15.75;;;3.08;;
73456;SDS011;61691;53.072;6.582;2023-06-14T06:47:06;13.38;;;2.70;;
73456;SDS011;61691;53.072;6.582;2023-06-14T06:49:32;7.28;;;2.20;;
73456;SDS011;61691;53.072;6.582;2023-06-14T06:52:08;13.05;;;2.55;;
73456;SDS011;61691;53.072;6.582;2023-06-14T06:54:35;9.77;;;2.20;;
73456;SDS011;61691;53.072;6.582;2023-06-14T06:57:02;10.25;;;2.38;;
73456;SDS011;61691;53.072;6.582;2023-06-14T06:59:29;10.50;;;2.40;;
73456;SDS011;61691;53.072;6.582;2023-06-14T07:01:56;11.60;;;2.22;;
73456;SDS011;61691;53.072;6.582;2023-06-14T07:04:23;12.00;;;2.40;;
73456;SDS011;61691;53.072;6.582;2023-06-14T07:06:50;8.38;;;2.05;;
73456;SDS011;61691;53.072;6.582;2023-06-14T07:09:17;10.98;;;2.30;;
73456;SDS011;61691;53.072;6.582;2023-06-14T07:11:46;11.75;;;2.70;;
73456;SDS011;61691;53.072;6.582;2023-06-14T07:14:13;9.27;;;2.33;;
73456;SDS011;61691;53.072;6.582;2023-06-14T07:16:40;12.05;;;2.70;;
73456;SDS011;61691;53.072;6.582;2023-06-14T07:19:07;11.68;;;2.45;;
73456;SDS011;61691;53.072;6.582;2023-06-14T07:21:35;9.48;;;2.10;;
73456;SDS011;61691;53.072;6.582;2023-06-14T07:24:07;8.77;;;2.13;;
73456;SDS011;61691;53.072;6.582;2023-06-14T07:26:34;11.38;;;2.42;;
73456;SDS011;61691;53.072;6.582;2023-06-14T07:29:01;10.50;;;2.30;;
73456;SDS011;61691;53.072;6.582;2023-06-14T07:31:28;13.30;;;2.40;;
73456;SDS011;61691;53.072;6.582;2023-06-14T07:33:55;9.90;;;3.00;;
73456;SDS011;61691;53.072;6.582;2023-06-14T07:36:23;11.27;;;2.60;;
73456;SDS011;61691;53.072;6.582;2023-06-14T07:38:49;13.35;;;2.72;;
73456;SDS011;61691;53.072;6.582;2023-06-14T07:41:16;12.88;;;2.40;;
73456;SDS011;61691;53.072;6.582;2023-06-14T07:43:43;11.20;;;2.58;;
73456;SDS011;61691;53.072;6.582;2023-06-14T07:46:10;9.88;;;2.35;;
73456;SDS011;61691;53.072;6.582;2023-06-14T07:48:37;13.07;;;2.97;;
73456;SDS011;61691;53.072;6.582;2023-06-14T07:51:04;16.92;;;2.67;;
73456;SDS011;61691;53.072;6.582;2023-06-14T07:53:31;12.70;;;2.45;;
73456;SDS011;61691;53.072;6.582;2023-06-14T07:55:58;12.32;;;2.40;;
73456;SDS011;61691;53.072;6.582;2023-06-14T07:58:27;11.43;;;2.63;;
73456;SDS011;61691;53.072;6.582;2023-06-14T08:00:54;11.73;;;2.40;;
73456;SDS011;61691;53.072;6.582;2023-06-14T08:03:21;11.05;;;2.80;;
73456;SDS011;61691;53.072;6.582;2023-06-14T08:05:49;11.57;;;2.30;;
73456;SDS011;61691;53.072;6.582;2023-06-14T08:08:16;9.95;;;2.33;;
73456;SDS011;61691;53.072;6.582;2023-06-14T08:10:43;11.52;;;2.40;;
73456;SDS011;61691;53.072;6.582;2023-06-14T08:13:10;9.98;;;2.50;;
73456;SDS011;61691;53.072;6.582;2023-06-14T08:15:37;10.25;;;2.30;;
73456;SDS011;61691;53.072;6.582;2023-06-14T08:18:04;16.48;;;2.50;;
73456;SDS011;61691;53.072;6.582;2023-06-14T08:20:31;8.70;;;2.15;;
73456;SDS011;61691;53.072;6.582;2023-06-14T08:22:58;12.95;;;2.05;;
73456;SDS011;61691;53.072;6.582;2023-06-14T08:25:25;10.88;;;2.42;;
73456;SDS011;61691;53.072;6.582;2023-06-14T08:27:52;11.27;;;2.33;;
73456;SDS011;61691;53.072;6.582;2023-06-14T08:30:19;9.00;;;2.25;;
73456;SDS011;61691;53.072;6.582;2023-06-14T08:32:46;12.70;;;2.38;;
73456;SDS011;61691;53.072;6.582;2023-06-14T08:35:18;10.90;;;2.30;;
73456;SDS011;61691;53.072;6.582;2023-06-14T08:37:46;13.00;;;2.40;;
73456;SDS011;61691;53.072;6.582;2023-06-14T08:42:50;10.57;;;2.80;;
73456;SDS011;61691;53.072;6.582;2023-06-14T08:45:20;12.40;;;2.20;;
73456;SDS011;61691;53.072;6.582;2023-06-14T08:47:51;10.43;;;2.30;;
73456;SDS011;61691;53.072;6.582;2023-06-14T08:50:21;10.48;;;2.22;;
73456;SDS011;61691;53.072;6.582;2023-06-14T08:52:54;12.32;;;2.72;;
73456;SDS011;61691;53.072;6.582;2023-06-14T08:55:23;12.45;;;2.53;;
73456;SDS011;61691;53.072;6.582;2023-06-14T08:57:53;11.88;;;2.50;;
73456;SDS011;61691;53.072;6.582;2023-06-14T09:02:52;15.50;;;2.28;;
73456;SDS011;61691;53.072;6.582;2023-06-14T09:05:24;11.57;;;2.88;;
73456;SDS011;61691;53.072;6.582;2023-06-14T09:07:53;11.98;;;2.30;;
73456;SDS011;61691;53.072;6.582;2023-06-14T09:10:31;10.43;;;2.28;;
73456;SDS011;61691;53.072;6.582;2023-06-14T09:13:04;10.35;;;2.50;;
73456;SDS011;61691;53.072;6.582;2023-06-14T09:15:31;14.70;;;2.42;;
73456;SDS011;61691;53.072;6.582;2023-06-14T09:18:00;6.88;;;2.10;;
73456;SDS011;61691;53.072;6.582;2023-06-14T09:20:29;14.73;;;2.47;;
73456;SDS011;61691;53.072;6.582;2023-06-14T09:22:56;9.43;;;2.15;;
73456;SDS011;61691;53.072;6.582;2023-06-14T09:25:23;10.30;;;2.35;;
73456;SDS011;61691;53.072;6.582;2023-06-14T09:28:06;11.73;;;2.50;;
73456;SDS011;61691;53.072;6.582;2023-06-14T09:30:36;8.32;;;2.40;;
73456;SDS011;61691;53.072;6.582;2023-06-14T09:33:03;14.55;;;2.33;;
73456;SDS011;61691;53.072;6.582;2023-06-14T09:35:33;12.07;;;2.92;;
73456;SDS011;61691;53.072;6.582;2023-06-14T09:38:00;11.05;;;2.30;;
73456;SDS011;61691;53.072;6.582;2023-06-14T09:40:27;13.38;;;3.00;;
73456;SDS011;61691;53.072;6.582;2023-06-14T09:42:54;9.40;;;2.40;;
73456;SDS011;61691;53.072;6.582;2023-06-14T09:45:25;13.85;;;2.17;;
73456;SDS011;61691;53.072;6.582;2023-06-14T09:47:56;11.40;;;2.63;;
73456;SDS011;61691;53.072;6.582;2023-06-14T09:50:27;12.23;;;2.78;;
73456;SDS011;61691;53.072;6.582;2023-06-14T09:52:55;9.77;;;2.20;;
73456;SDS011;61691;53.072;6.582;2023-06-14T09:55:26;9.73;;;2.50;;
73456;SDS011;61691;53.072;6.582;2023-06-14T09:57:57;12.70;;;2.42;;
73456;SDS011;61691;53.072;6.582;2023-06-14T10:00:28;12.20;;;2.60;;
73456;SDS011;61691;53.072;6.582;2023-06-14T10:02:59;13.70;;;2.47;;
73456;SDS011;61691;53.072;6.582;2023-06-14T10:05:30;10.85;;;2.10;;
73456;SDS011;61691;53.072;6.582;2023-06-14T10:08:01;7.38;;;2.00;;
73456;SDS011;61691;53.072;6.582;2023-06-14T10:10:31;11.73;;;2.45;;
73456;SDS011;61691;53.072;6.582;2023-06-14T10:12:58;13.27;;;2.42;;
73456;SDS011;61691;53.072;6.582;2023-06-14T10:15:31;12.48;;;2.75;;
73456;SDS011;61691;53.072;6.582;2023-06-14T10:18:06;9.50;;;2.30;;
73456;SDS011;61691;53.072;6.582;2023-06-14T10:20:40;12.18;;;2.30;;
73456;SDS011;61691;53.072;6.582;2023-06-14T10:23:22;13.43;;;2.67;;
73456;SDS011;61691;53.072;6.582;2023-06-14T10:25:54;9.73;;;2.30;;
73456;SDS011;61691;53.072;6.582;2023-06-14T10:28:23;9.23;;;2.10;;
73456;SDS011;61691;53.072;6.582;2023-06-14T10:31:05;9.70;;;2.33;;
73456;SDS011;61691;53.072;6.582;2023-06-14T10:33:40;9.43;;;2.13;;
73456;SDS011;61691;53.072;6.582;2023-06-14T10:41:37;11.65;;;2.35;;
73456;SDS011;61691;53.072;6.582;2023-06-14T10:47:09;13.90;;;2.20;;
73456;SDS011;61691;53.072;6.582;2023-06-14T10:52:19;7.55;;;2.00;;
73456;SDS011;61691;53.072;6.582;2023-06-14T10:57:43;12.18;;;2.08;;
73456;SDS011;61691;53.072;6.582;2023-06-14T11:00:20;8.48;;;1.67;;
73456;SDS011;61691;53.072;6.582;2023-06-14T11:05:58;7.82;;;1.55;;
73456;SDS011;61691;53.072;6.582;2023-06-14T11:13:58;9.07;;;1.60;;
73456;SDS011;61691;53.072;6.582;2023-06-14T11:16:26;7.57;;;1.63;;
73456;SDS011;61691;53.072;6.582;2023-06-14T11:18:54;4.47;;;1.50;;
73456;SDS011;61691;53.072;6.582;2023-06-14T11:21:21;9.88;;;1.77;;
73456;SDS011;61691;53.072;6.582;2023-06-14T11:23:48;9.70;;;1.80;;
73456;SDS011;61691;53.072;6.582;2023-06-14T11:26:26;10.40;;;1.98;;
73456;SDS011;61691;53.072;6.582;2023-06-14T11:28:57;9.95;;;1.60;;
73456;SDS011;61691;53.072;6.582;2023-06-14T11:31:26;9.45;;;1.83;;
73456;SDS011;61691;53.072;6.582;2023-06-14T11:33:54;8.38;;;2.10;;
73456;SDS011;61691;53.072;6.582;2023-06-14T11:36:26;6.63;;;1.80;;
73456;SDS011;61691;53.072;6.582;2023-06-14T11:38:58;7.68;;;1.80;;
73456;SDS011;61691;53.072;6.582;2023-06-14T11:41:34;8.05;;;1.80;;
73456;SDS011;61691;53.072;6.582;2023-06-14T11:44:03;11.32;;;2.10;;
73456;SDS011;61691;53.072;6.582;2023-06-14T11:46:31;11.38;;;2.20;;
73456;SDS011;61691;53.072;6.582;2023-06-14T11:48:58;6.47;;;1.63;;
73456;SDS011;61691;53.072;6.582;2023-06-14T11:51:25;10.13;;;2.00;;
73456;SDS011;61691;53.072;6.582;2023-06-14T11:53:52;10.93;;;2.35;;
73456;SDS011;61691;53.072;6.582;2023-06-14T11:56:19;4.68;;;1.40;;
73456;SDS011;61691;53.072;6.582;2023-06-14T11:58:46;8.75;;;1.75;;
73456;SDS011;61691;53.072;6.582;2023-06-14T12:01:16;8.65;;;1.88;;
73456;SDS011;61691;53.072;6.582;2023-06-14T12:03:50;6.95;;;1.73;;
73456;SDS011;61691;53.072;6.582;2023-06-14T12:06:26;9.65;;;2.17;;
73456;SDS011;61691;53.072;6.582;2023-06-14T12:09:02;12.07;;;2.17;;
73456;SDS011;61691;53.072;6.582;2023-06-14T12:11:34;14.30;;;2.17;;
73456;SDS011;61691;53.072;6.582;2023-06-14T12:14:03;9.30;;;2.10;;
73456;SDS011;61691;53.072;6.582;2023-06-14T12:16:32;12.27;;;1.90;;
73456;SDS011;61691;53.072;6.582;2023-06-14T12:19:00;11.43;;;1.85;;
73456;SDS011;61691;53.072;6.582;2023-06-14T12:21:34;7.15;;;1.88;;
73456;SDS011;61691;53.072;6.582;2023-06-14T12:24:04;11.20;;;2.10;;
73456;SDS011;61691;53.072;6.582;2023-06-14T12:26:33;8.77;;;1.80;;
73456;SDS011;61691;53.072;6.582;2023-06-14T12:29:00;9.02;;;1.92;;
73456;SDS011;61691;53.072;6.582;2023-06-14T12:31:27;11.27;;;1.88;;
73456;SDS011;61691;53.072;6.582;2023-06-14T12:33:53;13.50;;;2.13;;
73456;SDS011;61691;53.072;6.582;2023-06-14T12:36:20;9.50;;;2.05;;
73456;SDS011;61691;53.072;6.582;2023-06-14T12:38:47;11.00;;;2.30;;
73456;SDS011;61691;53.072;6.582;2023-06-14T12:41:14;8.00;;;1.92;;
73456;SDS011;61691;53.072;6.582;2023-06-14T12:43:41;10.85;;;2.00;;
73456;SDS011;61691;53.072;6.582;2023-06-14T12:46:08;5.85;;;1.80;;
73456;SDS011;61691;53.072;6.582;2023-06-14T12:48:35;9.55;;;2.25;;
73456;SDS011;61691;53.072;6.582;2023-06-14T12:51:01;12.90;;;2.20;;
73456;SDS011;61691;53.072;6.582;2023-06-14T12:53:28;9.40;;;2.25;;
73456;SDS011;61691;53.072;6.582;2023-06-14T12:55:55;8.43;;;2.10;;
73456;SDS011;61691;53.072;6.582;2023-06-14T12:58:22;11.93;;;2.10;;
73456;SDS011;61691;53.072;6.582;2023-06-14T13:00:50;8.40;;;2.00;;
73456;SDS011;61691;53.072;6.582;2023-06-14T13:03:17;13.63;;;2.40;;
73456;SDS011;61691;53.072;6.582;2023-06-14T13:05:44;13.52;;;2.10;;
73456;SDS011;61691;53.072;6.582;2023-06-14T13:08:12;10.80;;;2.08;;
73456;SDS011;61691;53.072;6.582;2023-06-14T13:10:39;12.68;;;2.75;;
73456;SDS011;61691;53.072;6.582;2023-06-14T13:13:06;13.00;;;2.30;;
73456;SDS011;61691;53.072;6.582;2023-06-14T13:15:34;9.57;;;2.22;;
73456;SDS011;61691;53.072;6.582;2023-06-14T13:18:01;8.20;;;1.80;;
73456;SDS011;61691;53.072;6.582;2023-06-14T13:20:29;11.73;;;2.00;;
73456;SDS011;61691;53.072;6.582;2023-06-14T13:22:58;14.93;;;2.10;;
73456;SDS011;61691;53.072;6.582;2023-06-14T13:25:25;9.60;;;2.00;;
73456;SDS011;61691;53.072;6.582;2023-06-14T13:27:52;12.05;;;2.45;;
73456;SDS011;61691;53.072;6.582;2023-06-14T13:30:19;9.43;;;2.03;;
73456;SDS011;61691;53.072;6.582;2023-06-14T13:32:47;12.27;;;1.92;;
73456;SDS011;61691;53.072;6.582;2023-06-14T13:35:16;8.57;;;1.98;;
73456;SDS011;61691;53.072;6.582;2023-06-14T13:37:43;6.25;;;1.90;;
73456;SDS011;61691;53.072;6.582;2023-06-14T13:40:10;7.80;;;1.98;;
73456;SDS011;61691;53.072;6.582;2023-06-14T13:42:37;11.73;;;2.25;;
73456;SDS011;61691;53.072;6.582;2023-06-14T13:45:04;7.78;;;2.10;;
73456;SDS011;61691;53.072;6.582;2023-06-14T13:47:32;7.80;;;2.00;;
73456;SDS011;61691;53.072;6.582;2023-06-14T13:49:59;7.60;;;2.10;;
73456;SDS011;61691;53.072;6.582;2023-06-14T13:52:26;12.70;;;2.58;;
73456;SDS011;61691;53.072;6.582;2023-06-14T13:54:53;10.32;;;2.25;;
73456;SDS011;61691;53.072;6.582;2023-06-14T13:57:20;6.30;;;1.95;;
73456;SDS011;61691;53.072;6.582;2023-06-14T13:59:47;7.43;;;1.88;;
73456;SDS011;61691;53.072;6.582;2023-06-14T14:02:14;9.95;;;2.08;;
73456;SDS011;61691;53.072;6.582;2023-06-14T14:04:41;11.15;;;2.33;;
73456;SDS011;61691;53.072;6.582;2023-06-14T14:07:09;7.47;;;1.90;;
73456;SDS011;61691;53.072;6.582;2023-06-14T14:09:36;11.07;;;2.50;;
73456;SDS011;61691;53.072;6.582;2023-06-14T14:12:04;8.68;;;2.08;;
73456;SDS011;61691;53.072;6.582;2023-06-14T14:14:31;10.10;;;1.80;;
73456;SDS011;61691;53.072;6.582;2023-06-14T14:16:58;6.82;;;1.90;;
73456;SDS011;61691;53.072;6.582;2023-06-14T14:19:25;5.88;;;2.00;;
73456;SDS011;61691;53.072;6.582;2023-06-14T14:21:52;6.75;;;1.55;;
73456;SDS011;61691;53.072;6.582;2023-06-14T14:24:20;9.40;;;2.08;;
73456;SDS011;61691;53.072;6.582;2023-06-14T14:26:47;8.20;;;2.00;;
73456;SDS011;61691;53.072;6.582;2023-06-14T14:29:16;7.03;;;1.90;;
73456;SDS011;61691;53.072;6.582;2023-06-14T14:31:43;11.48;;;2.70;;
73456;SDS011;61691;53.072;6.582;2023-06-14T14:34:10;8.98;;;2.10;;
73456;SDS011;61691;53.072;6.582;2023-06-14T14:36:37;8.90;;;2.00;;
73456;SDS011;61691;53.072;6.582;2023-06-14T14:39:04;9.23;;;2.00;;
73456;SDS011;61691;53.072;6.582;2023-06-14T14:41:31;7.82;;;2.10;;
73456;SDS011;61691;53.072;6.582;2023-06-14T14:43:58;9.23;;;2.00;;
73456;SDS011;61691;53.072;6.582;2023-06-14T14:46:27;7.22;;;1.90;;
73456;SDS011;61691;53.072;6.582;2023-06-14T14:48:54;6.72;;;1.90;;
73456;SDS011;61691;53.072;6.582;2023-06-14T14:51:21;9.85;;;2.35;;
73456;SDS011;61691;53.072;6.582;2023-06-14T14:53:48;9.38;;;2.03;;
73456;SDS011;61691;53.072;6.582;2023-06-14T14:56:15;6.82;;;2.00;;
73456;SDS011;61691;53.072;6.582;2023-06-14T14:58:41;11.43;;;2.25;;
73456;SDS011;61691;53.072;6.582;2023-06-14T15:01:08;9.70;;;1.90;;
73456;SDS011;61691;53.072;6.582;2023-06-14T15:03:35;9.23;;;2.10;;
73456;SDS011;61691;53.072;6.582;2023-06-14T15:06:21;6.68;;;1.77;;
73456;SDS011;61691;53.072;6.582;2023-06-14T15:08:48;7.80;;;2.15;;
73456;SDS011;61691;53.072;6.582;2023-06-14T15:11:15;8.75;;;2.30;;
73456;SDS011;61691;53.072;6.582;2023-06-14T15:13:42;11.63;;;2.17;;